createdAt,value
2022-08-26T00:02:23.162Z,21.12
2022-08-26T00:05:27.512Z,21.06
2022-08-26T00:08:31.278Z,21.06
2022-08-26T00:11:35.219Z,21.02
2022-08-26T00:14:38.900Z,20.97
2022-08-26T00:17:44.645Z,20.92
2022-08-26T00:20:48.674Z,20.88
2022-08-26T00:23:52.596Z,20.87
2022-08-26T00:26:56.253Z,20.84
2022-08-26T00:29:59.783Z,20.81
2022-08-26T00:33:06.265Z,20.79
2022-08-26T00:36:19.934Z,20.76
2022-08-26T00:39:24.190Z,20.73
2022-08-26T00:42:27.920Z,20.69
2022-08-26T00:45:43.354Z,20.65
2022-08-26T00:48:53.692Z,20.63
2022-08-26T00:52:02.203Z,20.60
2022-08-26T00:55:11.333Z,20.58
2022-08-26T00:58:25.983Z,20.55
2022-08-26T01:01:30.781Z,20.52
2022-08-26T01:04:39.987Z,20.51
2022-08-26T01:07:46.431Z,20.50
2022-08-26T01:10:50.178Z,20.50
2022-08-26T01:13:57.289Z,20.51
2022-08-26T01:17:03.252Z,20.49
2022-08-26T01:20:25.186Z,20.50
2022-08-26T01:23:34.939Z,20.49
2022-08-26T01:26:44.779Z,20.50
2022-08-26T01:29:51.750Z,20.49
2022-08-26T01:33:00.123Z,20.50
2022-08-26T01:36:05.695Z,20.49
2022-08-26T01:39:11.607Z,20.48
2022-08-26T01:42:19.337Z,20.47
2022-08-26T01:45:28.757Z,20.47
2022-08-26T01:48:35.942Z,20.48
2022-08-26T01:51:44.493Z,20.48
2022-08-26T01:54:50.596Z,20.47
2022-08-26T01:57:58.312Z,20.45
2022-08-26T02:01:02.676Z,20.42
2022-08-26T02:04:19.134Z,20.37
2022-08-26T02:07:26.662Z,20.33
2022-08-26T02:10:32.744Z,20.29
2022-08-26T02:13:42.949Z,20.22
2022-08-26T02:16:51.316Z,20.16
2022-08-26T02:19:55.712Z,20.17
2022-08-26T02:22:59.358Z,20.13
2022-08-26T02:26:12.049Z,20.11
2022-08-26T02:29:26.155Z,20.05
2022-08-26T02:32:29.963Z,19.98
2022-08-26T02:35:43.245Z,19.88
2022-08-26T02:38:47.684Z,19.81
2022-08-26T02:41:52.781Z,19.78
2022-08-26T02:44:56.787Z,19.74
2022-08-26T02:48:00.866Z,19.70
2022-08-26T02:51:04.955Z,19.70
2022-08-26T02:54:08.747Z,19.68
2022-08-26T02:57:15.016Z,19.66
2022-08-26T03:00:19.353Z,19.62
2022-08-26T03:03:23.501Z,19.59
2022-08-26T03:06:27.433Z,19.59
2022-08-26T03:09:31.187Z,19.57
2022-08-26T03:12:37.140Z,19.54
2022-08-26T03:15:41.671Z,19.51
2022-08-26T03:18:47.039Z,19.46
2022-08-26T03:21:57.885Z,19.44
2022-08-26T03:25:01.806Z,19.43
2022-08-26T03:28:07.853Z,19.43
2022-08-26T03:31:12.382Z,19.41
2022-08-26T03:34:17.250Z,19.37
2022-08-26T03:37:21.704Z,19.34
2022-08-26T03:40:25.958Z,19.31
2022-08-26T03:43:34.246Z,19.30
2022-08-26T03:46:39.125Z,19.29
2022-08-26T03:49:43.116Z,19.28
2022-08-26T03:52:47.189Z,19.25
2022-08-26T03:55:51.998Z,19.22
2022-08-26T03:58:57.906Z,19.20
2022-08-26T04:02:02.207Z,19.17
2022-08-26T04:05:06.679Z,19.13
2022-08-26T04:08:10.301Z,19.12
2022-08-26T04:11:19.931Z,19.09
2022-08-26T04:14:28.290Z,19.02
2022-08-26T04:17:31.976Z,19.03
2022-08-26T04:20:35.661Z,19.01
2022-08-26T04:23:47.312Z,18.99
2022-08-26T04:26:52.323Z,18.95
2022-08-26T04:29:57.594Z,18.94
2022-08-26T04:33:01.739Z,18.93
2022-08-26T04:36:06.939Z,18.90
2022-08-26T04:39:14.900Z,18.85
2022-08-26T04:42:25.883Z,18.83
2022-08-26T04:45:31.219Z,18.83
2022-08-26T04:48:35.547Z,18.85
2022-08-26T04:51:40.011Z,18.89
2022-08-26T04:54:43.720Z,18.86
2022-08-26T04:57:47.474Z,18.91
2022-08-26T05:00:56.392Z,18.94
2022-08-26T05:04:01.459Z,18.94
2022-08-26T05:07:09.670Z,18.94
2022-08-26T05:10:13.566Z,19.01
2022-08-26T05:13:22.418Z,19.01
2022-08-26T05:16:28.947Z,19.06
2022-08-26T05:19:33.313Z,19.13
2022-08-26T05:22:36.946Z,19.19
2022-08-26T05:25:43.572Z,19.22
2022-08-26T05:28:47.468Z,19.31
2022-08-26T05:31:54.177Z,19.43
2022-08-26T05:34:59.810Z,19.52
2022-08-26T05:38:12.260Z,19.54
2022-08-26T05:41:20.666Z,19.54
2022-08-26T05:44:24.544Z,19.61
2022-08-26T05:47:30.206Z,19.75
2022-08-26T05:50:38.144Z,19.92
2022-08-26T05:53:54.928Z,20.13
2022-08-26T05:56:58.660Z,20.26
2022-08-26T06:00:02.500Z,20.52
2022-08-26T06:03:09.134Z,20.71
2022-08-26T06:06:16.953Z,20.86
2022-08-26T06:09:24.859Z,20.90
2022-08-26T06:12:28.448Z,20.82
2022-08-26T06:15:32.181Z,20.65
2022-08-26T06:18:42.316Z,20.47
2022-08-26T06:21:51.291Z,20.45
2022-08-26T06:25:15.426Z,20.55
2022-08-26T06:28:19.339Z,20.81
2022-08-26T06:31:25.354Z,20.97
2022-08-26T06:34:31.228Z,21.22
2022-08-26T06:37:34.912Z,21.40
2022-08-26T06:40:44.770Z,21.59
2022-08-26T06:43:49.647Z,21.76
2022-08-26T06:46:53.620Z,21.90
2022-08-26T06:49:59.211Z,22.08
2022-08-26T06:53:03.194Z,22.08
2022-08-26T06:56:11.192Z,22.12
2022-08-26T06:59:16.125Z,22.22
2022-08-26T07:02:20.814Z,22.35
2022-08-26T07:05:26.410Z,22.45
2022-08-26T07:08:30.211Z,22.53
2022-08-26T07:11:36.198Z,22.56
2022-08-26T07:14:39.847Z,22.76
2022-08-26T07:17:47.584Z,22.90
2022-08-26T07:20:52.559Z,23.12
2022-08-26T07:24:01.422Z,23.18
2022-08-26T07:27:09.189Z,23.30
2022-08-26T07:30:14.771Z,23.24
2022-08-26T07:33:19.128Z,23.42
2022-08-26T07:36:28.444Z,23.68
2022-08-26T07:39:32.966Z,23.87
2022-08-26T07:42:36.891Z,23.90
2022-08-26T07:45:46.562Z,23.94
2022-08-26T07:48:52.091Z,23.90
2022-08-26T07:51:58.395Z,24.02
2022-08-26T07:55:04.454Z,24.11
2022-08-26T07:58:08.579Z,24.15
2022-08-26T08:01:13.542Z,23.89
2022-08-26T08:04:26.073Z,23.65
2022-08-26T08:07:44.461Z,23.67
2022-08-26T08:10:48.998Z,23.71
2022-08-26T08:13:56.418Z,23.94
2022-08-26T08:17:00.504Z,23.89
2022-08-26T08:20:06.247Z,23.78
2022-08-26T08:23:11.184Z,23.94
2022-08-26T08:26:15.530Z,23.95
2022-08-26T08:29:20.523Z,24.08
2022-08-26T08:32:25.113Z,23.94
2022-08-26T08:35:29.264Z,24.20
2022-08-26T08:38:35.262Z,24.15
2022-08-26T08:41:55.541Z,24.17
2022-08-26T08:45:06.343Z,24.28
2022-08-26T08:48:28.047Z,24.31
2022-08-26T08:51:41.899Z,24.15
2022-08-26T08:54:48.883Z,24.38
2022-08-26T08:58:05.024Z,24.48
2022-08-26T09:01:25.979Z,24.72
2022-08-26T09:04:59.860Z,24.59
2022-08-26T09:08:08.457Z,24.75
2022-08-26T09:11:18.571Z,25.02
2022-08-26T09:14:22.821Z,24.97
2022-08-26T09:17:44.374Z,24.98
2022-08-26T09:20:58.015Z,25.24
2022-08-26T09:24:02.387Z,25.39
2022-08-26T09:27:07.654Z,25.57
2022-08-26T09:30:24.990Z,25.70
2022-08-26T09:33:32.928Z,25.31
2022-08-26T09:36:41.598Z,25.25
2022-08-26T09:39:45.450Z,25.38
2022-08-26T09:43:15.880Z,25.47
2022-08-26T09:46:27.765Z,25.97
2022-08-26T09:49:36.671Z,26.10
2022-08-26T09:52:42.743Z,26.32
2022-08-26T09:55:49.780Z,26.81
2022-08-26T09:58:55.982Z,26.99
2022-08-26T10:02:36.321Z,27.01
2022-08-26T10:05:47.709Z,26.97
2022-08-26T10:08:55.982Z,26.80
2022-08-26T10:12:05.848Z,26.79
2022-08-26T10:15:14.568Z,26.77
2022-08-26T10:18:30.715Z,26.72
2022-08-26T10:21:46.411Z,26.50
2022-08-26T10:25:03.140Z,26.60
2022-08-26T10:28:18.302Z,26.49
2022-08-26T10:31:38.176Z,26.49
2022-08-26T10:34:45.031Z,26.47
2022-08-26T10:37:54.675Z,26.68
2022-08-26T10:41:09.924Z,26.82
2022-08-26T10:44:19.233Z,27.09
2022-08-26T10:47:36.083Z,27.28
2022-08-26T10:50:44.603Z,27.54
2022-08-26T10:54:03.292Z,27.48
2022-08-26T10:57:16.975Z,27.54
2022-08-26T11:00:40.047Z,27.44
2022-08-26T11:04:04.153Z,27.59
2022-08-26T11:07:37.806Z,27.59
2022-08-26T11:11:05.564Z,27.86
2022-08-26T11:14:11.995Z,27.82
2022-08-26T11:18:01.399Z,27.73
2022-08-26T11:22:02.592Z,27.88
2022-08-26T11:25:14.230Z,27.94
2022-08-26T11:28:35.576Z,27.80
2022-08-26T11:31:57.556Z,27.89
2022-08-26T11:35:03.932Z,27.54
2022-08-26T11:38:22.857Z,27.50
2022-08-26T11:41:29.889Z,27.75
2022-08-26T11:44:49.291Z,27.78
2022-08-26T11:47:56.268Z,27.55
2022-08-26T11:51:03.822Z,27.29
2022-08-26T11:54:15.899Z,27.64
2022-08-26T11:57:19.862Z,28.03
2022-08-26T12:00:33.534Z,28.34
2022-08-26T12:03:47.633Z,28.23
2022-08-26T12:06:53.486Z,27.84
2022-08-26T12:10:02.452Z,27.90
2022-08-26T12:13:07.803Z,27.55
2022-08-26T12:16:12.267Z,27.46
2022-08-26T12:19:28.150Z,27.33
2022-08-26T12:22:38.843Z,27.81
2022-08-26T12:25:48.996Z,28.26
2022-08-26T12:28:58.111Z,28.54
2022-08-26T12:32:13.627Z,28.52
2022-08-26T12:35:21.494Z,28.57
2022-08-26T12:38:28.527Z,28.83
2022-08-26T12:41:59.177Z,28.69
2022-08-26T12:45:07.783Z,28.40
2022-08-26T12:48:14.880Z,28.64
2022-08-26T12:51:26.408Z,28.70
2022-08-26T12:54:44.059Z,27.93
2022-08-26T12:57:49.220Z,28.14
2022-08-26T13:00:55.052Z,27.70
2022-08-26T13:03:58.668Z,27.73
2022-08-26T13:07:25.178Z,27.64
2022-08-26T13:10:38.870Z,27.60
2022-08-26T13:13:43.870Z,27.14
2022-08-26T13:16:48.342Z,26.78
2022-08-26T13:19:51.990Z,26.58
2022-08-26T13:22:58.836Z,26.59
2022-08-26T13:26:02.947Z,26.45
2022-08-26T13:29:10.382Z,26.32
2022-08-26T13:32:15.227Z,26.30
2022-08-26T13:35:19.024Z,26.08
2022-08-26T13:38:33.177Z,25.42
2022-08-26T13:41:37.495Z,24.92
2022-08-26T13:44:44.390Z,24.73
2022-08-26T13:47:48.807Z,24.34
2022-08-26T13:50:53.204Z,23.58
2022-08-26T13:53:57.622Z,22.96
2022-08-26T13:57:01.221Z,22.57
2022-08-26T14:00:11.049Z,22.41
2022-08-26T14:03:14.912Z,22.14
2022-08-26T14:06:18.882Z,21.66
2022-08-26T14:09:22.455Z,21.20
2022-08-26T14:12:26.451Z,20.98
2022-08-26T14:15:35.903Z,20.86
2022-08-26T14:18:45.266Z,20.87
2022-08-26T14:21:52.279Z,20.70
2022-08-26T14:24:56.611Z,20.65
2022-08-26T14:28:01.569Z,20.68
2022-08-26T14:31:07.980Z,20.49
2022-08-26T14:34:15.010Z,20.47
2022-08-26T14:37:18.834Z,20.51
2022-08-26T14:40:25.094Z,20.51
2022-08-26T14:43:28.890Z,20.60
2022-08-26T14:46:42.939Z,20.63
2022-08-26T14:49:46.672Z,20.59
2022-08-26T14:53:07.820Z,20.52
2022-08-26T14:56:16.141Z,20.40
2022-08-26T14:59:23.627Z,20.49
2022-08-26T15:02:33.543Z,20.51
2022-08-26T15:05:38.017Z,20.59
2022-08-26T15:08:41.634Z,20.58
2022-08-26T15:11:47.632Z,20.56
2022-08-26T15:14:51.712Z,20.56
2022-08-26T15:17:56.748Z,20.56
2022-08-26T15:21:02.894Z,20.52
2022-08-26T15:24:08.676Z,20.53
2022-08-26T15:27:12.458Z,20.55
2022-08-26T15:30:16.668Z,20.54
2022-08-26T15:33:22.283Z,20.53
2022-08-26T15:36:26.181Z,20.54
2022-08-26T15:39:29.972Z,20.54
2022-08-26T15:42:33.529Z,20.60
2022-08-26T15:45:37.778Z,20.55
2022-08-26T15:48:43.055Z,20.59
2022-08-26T15:51:48.266Z,20.58
2022-08-26T15:54:51.891Z,20.54
2022-08-26T15:57:55.820Z,20.55
2022-08-26T16:01:00.420Z,20.53
2022-08-26T16:04:06.627Z,20.58
2022-08-26T16:07:15.765Z,20.52
2022-08-26T16:10:22.435Z,20.54
2022-08-26T16:13:29.303Z,20.49
2022-08-26T16:16:48.964Z,20.50
2022-08-26T16:19:53.963Z,20.51
2022-08-26T16:22:58.127Z,20.48
2022-08-26T16:26:02.101Z,20.51
2022-08-26T16:29:09.546Z,20.53
2022-08-26T16:32:13.185Z,20.47
2022-08-26T16:35:18.870Z,20.40
2022-08-26T16:38:22.730Z,20.36
2022-08-26T16:41:30.504Z,20.37
2022-08-26T16:44:44.350Z,20.20
2022-08-26T16:47:48.186Z,20.22
2022-08-26T16:50:55.351Z,20.28
2022-08-26T16:54:04.023Z,20.32
2022-08-26T16:57:13.674Z,20.31
2022-08-26T17:00:24.540Z,20.31
2022-08-26T17:03:28.696Z,20.31
2022-08-26T17:06:34.453Z,20.34
2022-08-26T17:09:38.322Z,20.30
2022-08-26T17:12:45.477Z,20.32
2022-08-26T17:15:54.220Z,20.27
2022-08-26T17:19:02.519Z,20.28
2022-08-26T17:22:09.091Z,20.29
2022-08-26T17:25:15.767Z,20.22
2022-08-26T17:28:19.370Z,20.11
2022-08-26T17:31:24.527Z,19.99
2022-08-26T17:34:28.718Z,20.01
2022-08-26T17:37:34.769Z,19.98
2022-08-26T17:40:41.492Z,19.98
2022-08-26T17:43:46.240Z,19.87
2022-08-26T17:46:50.007Z,19.93
2022-08-26T17:49:53.726Z,19.81
2022-08-26T17:52:59.324Z,19.74
2022-08-26T17:56:03.329Z,19.68
2022-08-26T17:59:07.051Z,19.54
2022-08-26T18:02:11.419Z,19.57
2022-08-26T18:05:17.808Z,19.59
2022-08-26T18:08:23.599Z,19.56
2022-08-26T18:11:28.396Z,19.54
2022-08-26T18:14:34.154Z,19.54
2022-08-26T18:17:39.135Z,19.50
2022-08-26T18:20:45.188Z,19.45
2022-08-26T18:23:52.668Z,19.45
2022-08-26T18:26:56.804Z,19.42
2022-08-26T18:30:01.570Z,19.39
2022-08-26T18:33:05.263Z,19.39
2022-08-26T18:36:09.281Z,19.34
2022-08-26T18:39:16.022Z,19.35
2022-08-26T18:42:19.793Z,19.31
2022-08-26T18:45:24.410Z,19.29
2022-08-26T18:48:28.372Z,19.28
2022-08-26T18:51:35.308Z,19.32
2022-08-26T18:54:40.497Z,19.28
2022-08-26T18:57:44.228Z,19.30
2022-08-26T19:00:48.179Z,19.28
2022-08-26T19:03:51.813Z,19.28
2022-08-26T19:06:56.079Z,19.26
2022-08-26T19:10:01.103Z,19.28
2022-08-26T19:13:09.375Z,19.23
2022-08-26T19:16:18.751Z,19.25
2022-08-26T19:19:25.354Z,19.26
2022-08-26T19:22:29.311Z,19.23
2022-08-26T19:25:34.383Z,19.20
2022-08-26T19:28:40.822Z,19.23
2022-08-26T19:31:45.390Z,19.24
2022-08-26T19:34:52.152Z,19.20
2022-08-26T19:37:55.729Z,19.13
2022-08-26T19:41:01.762Z,19.13
2022-08-26T19:44:09.847Z,19.06
2022-08-26T19:47:14.283Z,19.00
2022-08-26T19:50:19.764Z,19.00
2022-08-26T19:53:23.683Z,19.01
2022-08-26T19:56:32.823Z,18.99
2022-08-26T19:59:37.327Z,18.98
2022-08-26T20:02:41.924Z,18.99
2022-08-26T20:05:45.855Z,19.00
2022-08-26T20:08:50.821Z,18.99
2022-08-26T20:12:02.126Z,18.94
2022-08-26T20:15:07.631Z,18.96
2022-08-26T20:18:38.340Z,18.99
2022-08-26T20:21:42.606Z,18.92
2022-08-26T20:24:46.582Z,18.94
2022-08-26T20:27:51.554Z,18.90
2022-08-26T20:30:55.180Z,18.89
2022-08-26T20:33:59.413Z,18.89
2022-08-26T20:37:04.072Z,18.84
2022-08-26T20:40:10.817Z,18.88
2022-08-26T20:43:17.226Z,18.83
2022-08-26T20:46:24.528Z,18.84
2022-08-26T20:49:30.364Z,18.78
2022-08-26T20:52:36.753Z,18.80
2022-08-26T20:55:40.864Z,18.78
2022-08-26T20:58:46.399Z,18.78
2022-08-26T21:01:50.958Z,18.78
2022-08-26T21:04:54.913Z,18.78
2022-08-26T21:07:58.517Z,18.74
2022-08-26T21:11:02.259Z,18.68
2022-08-26T21:14:16.075Z,18.67
2022-08-26T21:17:20.803Z,18.69
2022-08-26T21:20:24.955Z,18.67
2022-08-26T21:23:29.350Z,18.63
2022-08-26T21:26:34.143Z,18.63
2022-08-26T21:29:39.109Z,18.61
2022-08-26T21:32:42.872Z,18.62
2022-08-26T21:35:53.575Z,18.62
2022-08-26T21:38:57.954Z,18.60
2022-08-26T21:42:01.492Z,18.58
2022-08-26T21:45:08.524Z,18.51
2022-08-26T21:48:12.074Z,18.52
2022-08-26T21:51:18.107Z,18.52
2022-08-26T21:54:21.694Z,18.49
2022-08-26T21:57:27.481Z,18.46
2022-08-26T22:00:32.430Z,18.47
2022-08-26T22:03:46.648Z,18.47
2022-08-26T22:06:57.583Z,18.43
2022-08-26T22:10:02.208Z,18.41
2022-08-26T22:13:06.424Z,18.40
2022-08-26T22:16:12.866Z,18.36
2022-08-26T22:19:17.518Z,18.33
2022-08-26T22:22:21.219Z,18.28
2022-08-26T22:25:24.816Z,18.26
2022-08-26T22:28:29.306Z,18.24
2022-08-26T22:31:37.729Z,18.17
2022-08-26T22:34:42.731Z,18.15
2022-08-26T22:37:46.381Z,18.16
2022-08-26T22:40:55.265Z,18.15
2022-08-26T22:43:58.928Z,18.13
2022-08-26T22:47:03.979Z,18.17
2022-08-26T22:50:10.031Z,18.18
2022-08-26T22:53:14.903Z,18.21
2022-08-26T22:56:19.139Z,18.18
2022-08-26T22:59:23.303Z,18.13
2022-08-26T23:02:28.335Z,18.12
2022-08-26T23:05:33.216Z,18.17
2022-08-26T23:08:37.248Z,18.17
2022-08-26T23:11:44.772Z,18.14
2022-08-26T23:14:48.971Z,18.20
2022-08-26T23:17:58.552Z,18.20
2022-08-26T23:21:02.805Z,18.22
2022-08-26T23:24:07.215Z,18.22
2022-08-26T23:27:11.018Z,18.18
2022-08-26T23:30:21.697Z,18.13
2022-08-26T23:33:46.913Z,18.08
2022-08-26T23:36:49.964Z,18.07
2022-08-26T23:39:54.442Z,18.05
2022-08-26T23:43:03.519Z,18.08
2022-08-26T23:46:07.514Z,18.05
2022-08-26T23:49:12.892Z,18.05
2022-08-26T23:52:33.957Z,18.04
2022-08-26T23:55:40.107Z,18.05
2022-08-26T23:58:44.594Z,18.00
